Kapitan Shyriagin — D6GZ2 — position and weather

sailwx.info

Track history (hours):
 
Tides and Currents Weather Stations Pressure Air Temp Water Temp Dewpoint Dewpoint Depression Visibility Wind Speed Wind Dir Waves Ship Positions

Kapitan Shyriagin

Last reported at 2017-Oct-18 07:30 UTC. Time now 2017-Oct-18 15:14 UTC.
Position N 40°57' E 028°56'.

Length 142 m; draft 4 m.

Type: Cargo ship. MMSI: 616999191.

Date/timePositionNaut miles runAvg speedWind from/ knotsBaromVisibWave heightAir tempDewpointWater temp
2017-Oct-18 07:30N 40°57' E 028°56'  
2017-Oct-15 02:09N 45°07' E 036°29'1 7.6
2017-Oct-15 01:58N 45°08' E 036°28'3 7.3
2017-Oct-15 01:30N 45°12' E 036°28'4 7.4
2017-Oct-15 01:00N 45°15' E 036°28'3 6.2
2017-Oct-15 00:30N 45°18' E 036°29'4 7.6
2017-Oct-15 00:00N 45°20' E 036°34'4 7.5
2017-Oct-14 23:30N 45°21' E 036°39'3 6.4
2017-Oct-14 23:00N 45°24' E 036°40'2 4.3
2017-Oct-14 22:30N 45°26' E 036°38'1 1.2
2017-Oct-14 21:44N 45°27' E 036°37'1 3.4
2017-Oct-14 21:30N 45°27' E 036°36'5 0.1
2017-Oct-13 04:15N 45°32' E 036°34'4 8.0
2017-Oct-13 03:48N 45°34' E 036°37'2 7.9
2017-Oct-13 03:30N 45°36' E 036°40'  
Track history (hours):
 
Tides and Currents Weather Stations Pressure Air Temp Water Temp Dewpoint Dewpoint Depression Visibility Wind Speed Wind Dir Waves Ship Positions

Kapitan Shyriagin

Last reported at 2017-Oct-18 07:30 UTC. Time now 2017-Oct-18 15:14 UTC.
Position N 40°57' E 028°56'.

Length 142 m; draft 4 m.

Type: Cargo ship. MMSI: 616999191.

Date/timePositionNaut miles runAvg speedWind from/ knotsBaromVisibWave heightAir tempDewpointWater temp
2017-Oct-18 07:30N 40°57' E 028°56'  
2017-Oct-15 02:09N 45°07' E 036°29'1 7.6
2017-Oct-15 01:58N 45°08' E 036°28'3 7.3
2017-Oct-15 01:30N 45°12' E 036°28'4 7.4
2017-Oct-15 01:00N 45°15' E 036°28'3 6.2
2017-Oct-15 00:30N 45°18' E 036°29'4 7.6
2017-Oct-15 00:00N 45°20' E 036°34'4 7.5
2017-Oct-14 23:30N 45°21' E 036°39'3 6.4
2017-Oct-14 23:00N 45°24' E 036°40'2 4.3
2017-Oct-14 22:30N 45°26' E 036°38'1 1.2
2017-Oct-14 21:44N 45°27' E 036°37'1 3.4
2017-Oct-14 21:30N 45°27' E 036°36'5 0.1
2017-Oct-13 04:15N 45°32' E 036°34'4 8.0
2017-Oct-13 03:48N 45°34' E 036°37'2 7.9
2017-Oct-13 03:30N 45°36' E 036°40'  

Dump ship's entire track history